createdAt,value
2022-12-19T00:00:14.744Z,14.52
2022-12-19T00:01:19.543Z,12.88
2022-12-19T00:02:25.429Z,12.50
2022-12-19T00:03:27.282Z,13.73
2022-12-19T00:04:30.285Z,13.55
2022-12-19T00:05:35.831Z,12.27
2022-12-19T00:06:41.342Z,14.45
2022-12-19T00:07:48.410Z,13.52
2022-12-19T00:08:52.648Z,17.85
2022-12-19T00:09:54.223Z,18.65
2022-12-19T00:10:59.448Z,15.40
2022-12-19T00:12:02.449Z,13.65
2022-12-19T00:13:05.040Z,15.63
2022-12-19T00:14:07.683Z,15.93
2022-12-19T00:15:10.770Z,16.13
2022-12-19T00:16:14.337Z,14.05
2022-12-19T00:17:18.887Z,20.88
2022-12-19T00:18:20.611Z,18.50
2022-12-19T00:19:24.749Z,21.92
2022-12-19T00:20:26.383Z,21.63
2022-12-19T00:21:30.740Z,27.83
2022-12-19T00:22:32.915Z,23.83
2022-12-19T00:23:36.135Z,21.35
2022-12-19T00:24:37.954Z,23.00
2022-12-19T00:25:40.527Z,22.35
2022-12-19T00:26:43.153Z,21.45
2022-12-19T00:27:47.233Z,22.38
2022-12-19T00:28:50.860Z,20.05
2022-12-19T00:29:53.428Z,26.20
2022-12-19T00:30:55.630Z,24.30
2022-12-19T00:31:59.203Z,25.02
2022-12-19T00:33:02.616Z,22.90
2022-12-19T00:34:05.477Z,19.80
2022-12-19T00:35:07.504Z,23.77
2022-12-19T00:36:14.457Z,20.23
2022-12-19T00:37:18.512Z,19.67
2022-12-19T00:38:21.104Z,21.10
2022-12-19T00:39:22.924Z,21.70
2022-12-19T00:40:25.456Z,23.23
2022-12-19T00:41:30.415Z,18.30
2022-12-19T00:42:33.121Z,22.33
2022-12-19T00:43:36.519Z,23.13
2022-12-19T00:44:39.128Z,18.92
2022-12-19T00:45:40.833Z,21.95
2022-12-19T00:46:51.035Z,20.60
2022-12-19T00:47:54.843Z,22.00
2022-12-19T00:48:57.405Z,20.17
2022-12-19T00:49:59.016Z,19.73
2022-12-19T00:51:02.219Z,19.20
2022-12-19T00:52:04.364Z,19.27
2022-12-19T00:53:06.908Z,17.52
2022-12-19T00:54:09.890Z,23.42
2022-12-19T00:55:18.783Z,18.45
2022-12-19T00:56:22.658Z,17.80
2022-12-19T00:57:25.224Z,19.63
2022-12-19T00:58:27.131Z,18.58
2022-12-19T00:59:31.251Z,16.10
2022-12-19T01:00:33.143Z,17.23
2022-12-19T01:01:38.844Z,18.45
2022-12-19T01:02:40.723Z,17.15
2022-12-19T01:03:58.011Z,18.38
2022-12-19T01:05:06.005Z,17.80
2022-12-19T01:06:09.234Z,16.13
2022-12-19T01:07:11.057Z,16.40
2022-12-19T01:08:13.694Z,19.52
2022-12-19T01:09:15.734Z,17.52
2022-12-19T01:10:18.383Z,18.17
2022-12-19T01:11:40.853Z,17.92
2022-12-19T01:12:48.380Z,18.85
2022-12-19T01:13:51.034Z,16.00
2022-12-19T01:15:02.836Z,19.58
2022-12-19T01:16:10.210Z,18.80
2022-12-19T01:17:14.769Z,16.77
2022-12-19T01:18:17.688Z,20.45
2022-12-19T01:19:19.632Z,18.48
2022-12-19T01:20:29.323Z,22.10
2022-12-19T01:21:31.506Z,12.93
2022-12-19T01:22:34.111Z,15.05
2022-12-19T01:23:36.686Z,16.65
2022-12-19T01:24:39.571Z,17.35
2022-12-19T01:25:43.159Z,17.85
2022-12-19T01:26:47.553Z,15.82
2022-12-19T01:27:50.170Z,14.70
2022-12-19T01:28:51.805Z,18.30
2022-12-19T01:29:56.024Z,17.35
2022-12-19T01:30:57.650Z,15.32
2022-12-19T01:32:00.422Z,13.85
2022-12-19T01:33:02.137Z,16.00
2022-12-19T01:34:04.945Z,14.05
2022-12-19T01:35:09.204Z,14.38
2022-12-19T01:36:24.411Z,16.50
2022-12-19T01:37:26.079Z,15.13
2022-12-19T01:38:28.624Z,15.35
2022-12-19T01:39:30.415Z,16.27
2022-12-19T01:40:35.885Z,16.33
2022-12-19T01:41:37.780Z,18.20
2022-12-19T01:42:40.779Z,13.02
2022-12-19T01:43:57.036Z,15.93
2022-12-19T01:45:20.948Z,17.55
2022-12-19T01:46:28.440Z,15.00
2022-12-19T01:47:32.866Z,16.65
2022-12-19T01:48:39.594Z,18.42
2022-12-19T01:49:41.393Z,15.32
2022-12-19T01:51:00.668Z,17.25
2022-12-19T01:52:10.312Z,13.63
2022-12-19T01:53:15.958Z,17.02
2022-12-19T01:54:23.526Z,20.15
2022-12-19T01:55:25.682Z,16.77
2022-12-19T01:56:32.700Z,18.80
2022-12-19T01:57:34.881Z,17.15
2022-12-19T01:58:46.394Z,16.80
2022-12-19T01:59:51.583Z,17.15
2022-12-19T02:00:55.873Z,16.77
2022-12-19T02:02:03.219Z,13.52
2022-12-19T02:03:12.418Z,13.20
2022-12-19T02:04:15.059Z,17.23
2022-12-19T02:05:17.721Z,17.95
2022-12-19T02:06:19.858Z,13.32
2022-12-19T02:07:24.639Z,18.30
2022-12-19T02:08:27.605Z,18.42
2022-12-19T02:09:32.421Z,15.18
2022-12-19T02:10:34.354Z,16.33
2022-12-19T02:11:37.124Z,16.42
2022-12-19T02:12:43.105Z,14.88
2022-12-19T02:13:48.015Z,16.40
2022-12-19T02:14:49.924Z,15.57
2022-12-19T02:16:02.004Z,17.77
2022-12-19T02:17:11.500Z,16.95
2022-12-19T02:18:22.447Z,17.60
2022-12-19T02:19:48.363Z,16.55
2022-12-19T02:21:14.376Z,16.02
2022-12-19T02:22:26.826Z,15.10
2022-12-19T02:23:59.536Z,14.75
2022-12-19T02:25:33.770Z,14.07
2022-12-19T02:26:52.479Z,16.38
2022-12-19T02:28:14.566Z,16.85
2022-12-19T02:29:34.448Z,15.80
2022-12-19T02:30:46.478Z,14.73
2022-12-19T02:31:52.377Z,17.30
2022-12-19T02:33:02.862Z,17.23
2022-12-19T02:34:14.303Z,14.10
2022-12-19T02:35:25.539Z,16.63
2022-12-19T02:36:33.995Z,14.75
2022-12-19T02:37:49.628Z,16.63
2022-12-19T02:38:59.231Z,15.75
2022-12-19T02:40:06.486Z,15.20
2022-12-19T02:41:13.988Z,15.75
2022-12-19T02:42:28.428Z,14.73
2022-12-19T02:43:40.361Z,15.82
2022-12-19T02:44:46.111Z,15.80
2022-12-19T02:45:52.198Z,15.45
2022-12-19T02:46:54.536Z,14.55
2022-12-19T02:47:58.024Z,15.05
2022-12-19T02:49:01.398Z,18.75
2022-12-19T02:50:05.177Z,14.32
2022-12-19T02:51:06.818Z,15.68
2022-12-19T02:52:11.059Z,14.07
2022-12-19T02:53:15.025Z,16.20
2022-12-19T02:54:17.999Z,14.23
2022-12-19T02:55:23.776Z,14.50
2022-12-19T02:56:41.188Z,15.30
2022-12-19T02:57:59.636Z,13.77
2022-12-19T02:59:21.621Z,15.75
2022-12-19T03:00:25.560Z,15.23
2022-12-19T03:01:42.321Z,18.60
2022-12-19T03:03:00.337Z,18.08
2022-12-19T03:04:17.185Z,15.75
2022-12-19T03:05:26.460Z,15.02
2022-12-19T03:06:36.631Z,11.15
2022-12-19T03:07:46.245Z,14.82
2022-12-19T03:08:56.506Z,13.18
2022-12-19T03:10:07.853Z,10.65
2022-12-19T03:11:13.342Z,13.05
2022-12-19T03:12:26.731Z,14.50
2022-12-19T03:13:33.183Z,14.98
2022-12-19T03:14:38.970Z,19.15
2022-12-19T03:15:42.833Z,13.65
2022-12-19T03:16:45.964Z,14.70
2022-12-19T03:17:49.512Z,12.30
2022-12-19T03:18:51.753Z,11.95
2022-12-19T03:19:54.364Z,15.77
2022-12-19T03:21:04.967Z,14.85
2022-12-19T03:22:10.716Z,12.70
2022-12-19T03:23:13.478Z,14.40
2022-12-19T03:24:18.520Z,12.85
2022-12-19T03:25:22.474Z,13.70
2022-12-19T03:26:29.636Z,15.45
2022-12-19T03:27:36.334Z,12.73
2022-12-19T03:28:44.223Z,12.90
2022-12-19T03:29:52.171Z,14.20
2022-12-19T03:30:56.267Z,14.13
2022-12-19T03:32:03.152Z,14.25
2022-12-19T03:33:06.049Z,14.98
2022-12-19T03:34:12.348Z,15.02
2022-12-19T03:35:19.552Z,13.80
2022-12-19T03:36:26.046Z,16.00
2022-12-19T03:37:32.801Z,14.13
2022-12-19T03:38:35.720Z,15.63
2022-12-19T03:39:41.741Z,13.65
2022-12-19T03:40:46.011Z,13.65
2022-12-19T03:42:07.904Z,17.50
2022-12-19T03:43:14.531Z,13.65
2022-12-19T03:44:19.218Z,12.13
2022-12-19T03:45:30.702Z,12.95
2022-12-19T03:46:35.512Z,12.48
2022-12-19T03:47:42.943Z,14.60
2022-12-19T03:48:46.374Z,13.13
2022-12-19T03:49:49.797Z,13.38
2022-12-19T03:50:58.004Z,11.82
2022-12-19T03:52:06.215Z,14.60
2022-12-19T03:53:19.407Z,11.10
2022-12-19T03:54:26.850Z,13.32
2022-12-19T03:55:36.430Z,11.05
2022-12-19T03:56:46.767Z,13.02
2022-12-19T03:57:58.660Z,12.30
2022-12-19T03:59:07.691Z,10.68
2022-12-19T04:00:13.406Z,13.18
2022-12-19T04:01:21.637Z,13.40
2022-12-19T04:02:27.075Z,11.57
2022-12-19T04:03:32.881Z,12.25
2022-12-19T04:04:38.155Z,11.82
2022-12-19T04:05:42.880Z,13.88
2022-12-19T04:06:45.846Z,13.05
2022-12-19T04:07:50.270Z,13.75
2022-12-19T04:08:52.223Z,13.48
2022-12-19T04:10:00.555Z,12.30
2022-12-19T04:11:09.797Z,11.90
2022-12-19T04:12:16.917Z,13.13
2022-12-19T04:13:27.760Z,11.73
2022-12-19T04:15:58.501Z,11.48
2022-12-19T04:17:08.711Z,10.45
2022-12-19T04:18:14.681Z,12.50
2022-12-19T04:19:21.504Z,11.93
2022-12-19T04:20:28.034Z,11.02
2022-12-19T04:21:33.858Z,12.63
2022-12-19T04:22:40.975Z,12.50
2022-12-19T04:23:47.853Z,11.18
2022-12-19T04:24:58.399Z,11.77
2022-12-19T04:26:03.780Z,7.68
2022-12-19T04:27:09.481Z,12.32
2022-12-19T04:28:17.480Z,12.98
2022-12-19T04:29:22.527Z,12.85
2022-12-19T04:30:24.403Z,13.25
2022-12-19T04:31:27.265Z,13.35
2022-12-19T04:32:34.718Z,11.60
2022-12-19T04:33:37.436Z,12.18
2022-12-19T04:34:43.632Z,14.80
2022-12-19T04:35:52.243Z,13.00
2022-12-19T04:36:54.958Z,12.85
2022-12-19T04:37:59.174Z,12.70
2022-12-19T04:39:01.984Z,12.48
2022-12-19T04:40:04.351Z,12.57
2022-12-19T04:41:07.344Z,11.73
2022-12-19T04:42:09.007Z,12.80
2022-12-19T04:43:11.774Z,14.18
2022-12-19T04:44:13.456Z,12.02
2022-12-19T04:45:17.192Z,13.93
2022-12-19T04:46:19.041Z,13.57
2022-12-19T04:47:21.710Z,12.88
2022-12-19T04:48:23.407Z,13.40
2022-12-19T04:49:26.229Z,12.00
2022-12-19T04:50:29.351Z,12.65
2022-12-19T04:51:35.522Z,16.83
2022-12-19T04:52:37.239Z,13.85
2022-12-19T04:53:42.766Z,11.50
2022-12-19T04:54:46.703Z,17.02
2022-12-19T04:55:49.643Z,11.15
2022-12-19T04:56:52.729Z,14.98
2022-12-19T04:57:55.483Z,13.57
2022-12-19T04:58:57.959Z,13.02
2022-12-19T05:00:00.662Z,12.43
2022-12-19T05:01:03.077Z,16.25
2022-12-19T05:02:08.754Z,14.10
2022-12-19T05:03:10.619Z,14.60
2022-12-19T05:04:13.388Z,12.80
2022-12-19T05:05:15.482Z,14.02
2022-12-19T05:06:20.414Z,13.68
2022-12-19T05:07:22.047Z,12.23
2022-12-19T05:08:24.720Z,13.57
2022-12-19T05:09:26.489Z,14.65
2022-12-19T05:10:29.086Z,14.23
2022-12-19T05:11:31.011Z,13.38
2022-12-19T05:12:33.835Z,11.88
2022-12-19T05:13:35.922Z,14.60
2022-12-19T05:14:40.987Z,12.77
2022-12-19T05:15:42.652Z,15.35
2022-12-19T05:16:45.624Z,14.75
2022-12-19T05:17:47.279Z,13.40
2022-12-19T05:18:49.962Z,13.35
2022-12-19T05:19:51.666Z,14.77
2022-12-19T05:20:54.611Z,11.85
2022-12-19T05:21:58.783Z,12.07
2022-12-19T05:23:05.022Z,13.60
2022-12-19T05:24:08.704Z,13.55
2022-12-19T05:25:11.353Z,12.18
2022-12-19T05:26:13.316Z,14.10
2022-12-19T05:27:15.986Z,12.00
2022-12-19T05:28:18.317Z,12.75
2022-12-19T05:29:21.175Z,14.27
2022-12-19T05:30:24.428Z,11.55
2022-12-19T05:31:27.087Z,12.43
2022-12-19T05:32:30.389Z,15.15
2022-12-19T05:33:33.119Z,13.07
2022-12-19T05:34:34.900Z,13.63
2022-12-19T05:35:38.250Z,11.90
2022-12-19T05:36:40.108Z,12.60
2022-12-19T05:37:44.304Z,12.82
2022-12-19T05:38:46.088Z,14.32
2022-12-19T05:39:48.809Z,12.55
2022-12-19T05:40:50.438Z,13.27
2022-12-19T05:41:53.123Z,15.00
2022-12-19T05:42:54.769Z,13.35
2022-12-19T05:43:57.763Z,13.82
2022-12-19T05:44:59.436Z,13.30
2022-12-19T05:46:02.138Z,13.82
2022-12-19T05:47:03.976Z,15.00
2022-12-19T05:48:07.258Z,13.40
2022-12-19T05:49:13.095Z,15.63
2022-12-19T05:50:16.308Z,12.93
2022-12-19T05:51:18.124Z,14.50
2022-12-19T05:52:20.900Z,13.23
2022-12-19T05:53:26.082Z,12.43
2022-12-19T05:54:29.167Z,13.57
2022-12-19T05:55:31.673Z,18.15
2022-12-19T05:56:34.313Z,15.63
2022-12-19T05:57:36.521Z,13.38
2022-12-19T05:58:41.226Z,12.73
2022-12-19T05:59:43.070Z,15.15
2022-12-19T06:00:45.856Z,13.60
2022-12-19T06:01:47.599Z,13.40
2022-12-19T06:03:01.932Z,13.60
2022-12-19T06:04:04.282Z,14.52
2022-12-19T06:05:07.652Z,15.23
2022-12-19T06:06:11.723Z,13.80
2022-12-19T06:07:19.216Z,13.30
2022-12-19T06:08:23.893Z,15.23
2022-12-19T06:09:27.000Z,14.25
2022-12-19T06:10:28.841Z,15.48
2022-12-19T06:11:31.508Z,14.43
2022-12-19T06:12:33.273Z,14.40
2022-12-19T06:13:37.091Z,13.13
2022-12-19T06:14:38.879Z,16.83
2022-12-19T06:15:42.177Z,14.45
2022-12-19T06:16:44.110Z,16.55
2022-12-19T06:17:46.901Z,12.88
2022-12-19T06:18:48.842Z,17.45
2022-12-19T06:19:51.672Z,15.98
2022-12-19T06:20:58.317Z,15.68
2022-12-19T06:22:01.140Z,14.90
2022-12-19T06:23:02.844Z,14.00
2022-12-19T06:24:08.010Z,14.50
2022-12-19T06:25:10.052Z,14.68
2022-12-19T06:26:19.019Z,16.00
2022-12-19T06:27:20.962Z,14.95
2022-12-19T06:28:23.648Z,16.73
2022-12-19T06:29:25.474Z,14.73
2022-12-19T06:30:30.664Z,16.83
2022-12-19T06:31:33.408Z,16.85
2022-12-19T06:32:38.188Z,17.83
2022-12-19T06:33:41.850Z,15.23
2022-12-19T06:36:09.593Z,16.83
2022-12-19T06:37:12.116Z,13.63
2022-12-19T06:38:14.894Z,14.93
2022-12-19T06:39:19.009Z,19.90
2022-12-19T06:40:35.718Z,16.77
2022-12-19T06:42:07.409Z,14.45
2022-12-19T06:43:12.100Z,15.00
2022-12-19T06:44:17.179Z,14.23
2022-12-19T06:45:18.804Z,14.30
2022-12-19T06:46:24.537Z,20.08
2022-12-19T06:47:26.285Z,15.68
2022-12-19T06:48:29.383Z,14.98
2022-12-19T06:49:31.253Z,16.58
2022-12-19T06:50:35.961Z,18.15
2022-12-19T06:51:41.652Z,15.63
2022-12-19T06:52:43.451Z,17.17
2022-12-19T06:53:46.244Z,18.05
2022-12-19T06:54:50.343Z,15.77
2022-12-19T06:55:55.694Z,15.60
2022-12-19T06:56:58.492Z,18.65
2022-12-19T06:58:02.456Z,17.75
2022-12-19T06:59:05.314Z,17.20
2022-12-19T07:00:09.994Z,19.17
2022-12-19T07:01:19.076Z,15.90
2022-12-19T07:02:28.470Z,16.63
2022-12-19T07:03:37.255Z,18.58
2022-12-19T07:04:42.227Z,15.63
2022-12-19T07:05:45.245Z,15.52
2022-12-19T07:06:49.360Z,16.63
2022-12-19T07:07:52.134Z,17.98
2022-12-19T07:08:54.015Z,18.98
2022-12-19T07:09:58.125Z,19.13
2022-12-19T07:11:01.260Z,18.17
2022-12-19T07:12:04.656Z,18.20
2022-12-19T07:13:06.272Z,19.52
2022-12-19T07:14:08.990Z,16.67
2022-12-19T07:15:19.529Z,19.45
2022-12-19T07:16:21.203Z,18.10
2022-12-19T07:17:25.684Z,16.67
2022-12-19T07:18:30.343Z,18.85
2022-12-19T07:19:33.983Z,19.50
2022-12-19T07:20:43.350Z,17.90
2022-12-19T07:21:50.992Z,17.95
2022-12-19T07:22:53.921Z,16.73
2022-12-19T07:23:56.721Z,19.30
2022-12-19T07:25:01.237Z,17.98
2022-12-19T07:26:04.830Z,18.23
2022-12-19T07:27:09.068Z,19.35
2022-12-19T07:28:11.940Z,17.50
2022-12-19T07:29:15.937Z,18.60
2022-12-19T07:30:18.638Z,17.83
2022-12-19T07:31:20.315Z,19.40
2022-12-19T07:32:23.300Z,15.15
2022-12-19T07:33:25.074Z,22.05
2022-12-19T07:34:27.754Z,17.92
2022-12-19T07:35:30.879Z,18.98
2022-12-19T07:36:33.581Z,20.00
2022-12-19T07:37:36.889Z,20.98
2022-12-19T07:38:39.502Z,18.48
2022-12-19T07:39:42.322Z,22.90
2022-12-19T07:40:46.621Z,20.05
2022-12-19T07:41:48.310Z,21.63
2022-12-19T07:42:51.071Z,20.88
2022-12-19T07:43:53.934Z,20.67
2022-12-19T07:44:55.649Z,22.10
2022-12-19T07:45:58.369Z,21.02
2022-12-19T07:47:01.325Z,21.20
2022-12-19T07:48:04.201Z,21.65
2022-12-19T07:49:07.180Z,18.88
2022-12-19T07:50:09.729Z,20.48
2022-12-19T07:51:12.639Z,21.42
2022-12-19T07:52:15.574Z,19.52
2022-12-19T07:53:17.338Z,21.65
2022-12-19T07:54:21.446Z,21.83
2022-12-19T07:55:23.156Z,23.15
2022-12-19T07:56:27.621Z,18.58
2022-12-19T07:57:29.427Z,21.38
2022-12-19T07:58:32.168Z,20.75
2022-12-19T07:59:38.797Z,21.10
2022-12-19T08:00:42.259Z,20.42
2022-12-19T08:01:44.535Z,21.27
2022-12-19T08:02:48.088Z,19.88
2022-12-19T08:03:51.191Z,20.33
2022-12-19T08:04:54.119Z,19.75
2022-12-19T08:06:00.419Z,21.23
2022-12-19T08:07:03.480Z,23.73
2022-12-19T08:08:05.472Z,26.65
2022-12-19T08:09:08.146Z,23.60
2022-12-19T08:10:12.646Z,22.88
2022-12-19T08:11:17.280Z,22.35
2022-12-19T08:12:21.245Z,21.83
2022-12-19T08:13:22.991Z,19.50
2022-12-19T08:14:25.690Z,24.15
2022-12-19T08:15:28.296Z,23.80
2022-12-19T08:16:31.147Z,21.40
2022-12-19T08:17:33.798Z,20.08
2022-12-19T08:18:36.485Z,20.52
2022-12-19T08:19:38.178Z,22.90
2022-12-19T08:20:40.840Z,22.13
2022-12-19T08:21:43.469Z,21.52
2022-12-19T08:22:46.397Z,22.75
2022-12-19T08:23:48.037Z,24.10
2022-12-19T08:24:50.722Z,25.13
2022-12-19T08:26:00.277Z,19.65
2022-12-19T08:27:03.036Z,21.50
2022-12-19T08:28:07.367Z,21.30
2022-12-19T08:29:09.313Z,23.90
2022-12-19T08:30:14.091Z,21.10
2022-12-19T08:31:18.767Z,20.17
2022-12-19T08:32:22.006Z,24.23
2022-12-19T08:33:24.717Z,20.08
2022-12-19T08:34:27.027Z,21.65
2022-12-19T08:35:29.778Z,20.33
2022-12-19T08:36:32.805Z,23.38
2022-12-19T08:37:35.447Z,24.25
2022-12-19T08:38:37.344Z,21.05
2022-12-19T08:39:41.110Z,24.27
2022-12-19T08:40:47.374Z,23.70
2022-12-19T08:41:49.289Z,25.65
2022-12-19T08:42:51.963Z,23.65
2022-12-19T08:43:54.969Z,22.45
2022-12-19T08:44:57.728Z,21.23
2022-12-19T08:46:00.917Z,21.27
2022-12-19T08:47:03.775Z,24.88
2022-12-19T08:48:07.722Z,23.27
2022-12-19T08:49:10.334Z,28.95
2022-12-19T08:50:14.271Z,24.23
2022-12-19T08:51:18.307Z,20.40
2022-12-19T08:52:21.056Z,23.40
2022-12-19T08:53:26.443Z,23.35
2022-12-19T08:54:29.652Z,23.02
2022-12-19T08:55:32.319Z,21.55
2022-12-19T08:56:33.933Z,23.10
2022-12-19T08:57:36.622Z,24.50
2022-12-19T08:58:39.534Z,25.38
2022-12-19T08:59:43.490Z,24.08
2022-12-19T09:00:52.095Z,25.25
2022-12-19T09:01:57.562Z,22.83
2022-12-19T09:03:00.625Z,25.67
2022-12-19T09:05:09.259Z,23.70
2022-12-19T09:06:01.831Z,24.65
2022-12-19T09:06:48.647Z,23.27
2022-12-19T09:07:51.207Z,25.15
2022-12-19T09:08:53.838Z,28.38
2022-12-19T09:10:03.156Z,23.40
2022-12-19T09:11:08.174Z,27.98
2022-12-19T09:12:10.891Z,25.00
2022-12-19T09:13:13.465Z,23.73
2022-12-19T09:14:20.852Z,25.67
2022-12-19T09:15:25.724Z,24.17
2022-12-19T09:16:28.652Z,24.52
2022-12-19T09:17:31.249Z,23.02
2022-12-19T09:18:34.873Z,25.83
2022-12-19T09:19:37.414Z,24.45
2022-12-19T09:20:39.773Z,24.85
2022-12-19T09:21:42.333Z,25.60
2022-12-19T09:22:44.930Z,26.15
2022-12-19T09:23:49.722Z,28.55
2022-12-19T09:24:52.361Z,25.00
2022-12-19T09:25:54.046Z,25.65
2022-12-19T09:26:56.706Z,23.90
2022-12-19T09:28:26.816Z,24.35
2022-12-19T09:29:22.470Z,23.95
2022-12-19T09:30:26.566Z,22.58
2022-12-19T09:31:30.049Z,25.13
2022-12-19T09:32:32.691Z,24.15
2022-12-19T09:33:42.956Z,26.88
2022-12-19T09:35:50.056Z,24.35
2022-12-19T09:36:53.877Z,26.85
2022-12-19T09:38:00.035Z,27.25
2022-12-19T09:39:06.232Z,31.58
2022-12-19T09:40:16.789Z,26.90
2022-12-19T09:41:57.062Z,18.55
2022-12-19T09:43:12.149Z,24.05
2022-12-19T09:44:30.703Z,23.83
2022-12-19T09:45:41.764Z,26.42
2022-12-19T09:46:49.382Z,20.08
2022-12-19T09:47:57.963Z,21.00
2022-12-19T09:49:02.954Z,22.35
2022-12-19T09:50:22.411Z,26.17
2022-12-19T09:51:35.311Z,26.20
2022-12-19T09:52:41.034Z,20.65
2022-12-19T09:53:59.489Z,22.13
2022-12-19T09:55:05.736Z,22.00
2022-12-19T09:56:15.828Z,21.15
2022-12-19T09:57:24.139Z,23.42
2022-12-19T09:58:38.640Z,20.40
2022-12-19T09:59:49.683Z,20.33
2022-12-19T10:01:00.185Z,22.83
2022-12-19T10:02:15.899Z,19.88
2022-12-19T10:03:25.213Z,22.38
2022-12-19T10:04:30.878Z,24.08
2022-12-19T10:07:11.441Z,22.52
2022-12-19T10:07:22.103Z,22.23
2022-12-19T10:08:32.625Z,19.38
2022-12-19T10:11:08.251Z,20.42
2022-12-19T10:12:41.396Z,23.73
2022-12-19T10:12:51.147Z,20.48
2022-12-19T10:14:17.446Z,21.23
2022-12-19T10:15:27.014Z,23.58
2022-12-19T10:17:01.739Z,21.25
2022-12-19T10:18:22.058Z,21.08
2022-12-19T10:19:34.759Z,23.20
2022-12-19T10:20:42.429Z,21.15
2022-12-19T10:22:18.114Z,21.52
2022-12-19T10:23:36.502Z,21.17
2022-12-19T10:25:08.103Z,21.25
2022-12-19T10:26:19.423Z,19.38
2022-12-19T10:27:35.162Z,18.42
2022-12-19T10:28:53.177Z,23.75
2022-12-19T10:30:04.178Z,18.55
2022-12-19T10:31:21.573Z,23.17
2022-12-19T10:32:36.616Z,22.08
2022-12-19T10:33:45.975Z,20.20
2022-12-19T10:34:50.753Z,24.40
2022-12-19T10:36:02.081Z,21.15
2022-12-19T10:37:23.108Z,19.00
2022-12-19T10:38:38.359Z,27.60
2022-12-19T10:39:51.967Z,18.92
2022-12-19T10:41:07.469Z,19.42
2022-12-19T10:42:16.857Z,22.40
2022-12-19T10:43:33.532Z,21.85
2022-12-19T10:44:41.149Z,21.50
2022-12-19T10:45:47.072Z,20.20
2022-12-19T10:46:51.526Z,22.20
2022-12-19T10:47:59.147Z,22.10
2022-12-19T10:49:02.340Z,19.70
2022-12-19T10:50:09.677Z,21.38
2022-12-19T10:51:14.564Z,22.92
2022-12-19T10:52:53.405Z,20.27
2022-12-19T10:53:56.997Z,25.15
2022-12-19T10:54:59.787Z,20.27
2022-12-19T10:56:12.416Z,22.23
2022-12-19T10:57:25.567Z,20.45
2022-12-19T10:58:33.297Z,18.67
2022-12-19T10:59:35.871Z,24.52
2022-12-19T11:00:38.601Z,20.45
2022-12-19T11:01:41.635Z,20.67
2022-12-19T11:02:45.611Z,19.15
2022-12-19T11:03:52.720Z,25.10
2022-12-19T11:04:55.763Z,24.15
2022-12-19T11:06:02.572Z,24.25
2022-12-19T11:07:21.617Z,22.67
2022-12-19T11:08:27.289Z,26.05
2022-12-19T11:09:31.947Z,23.13
2022-12-19T11:13:57.337Z,23.85
2022-12-19T11:15:23.513Z,19.90
2022-12-19T11:19:01.819Z,22.35
2022-12-19T11:19:44.229Z,20.67
2022-12-19T11:24:38.743Z,23.27
2022-12-19T11:26:15.794Z,21.33
2022-12-19T11:29:19.609Z,23.80
2022-12-19T11:29:31.263Z,17.98
2022-12-19T11:29:38.940Z,22.33
2022-12-19T11:29:39.898Z,23.45
2022-12-19T11:30:35.302Z,19.65
2022-12-19T11:30:35.458Z,18.23
2022-12-19T11:30:43.753Z,22.83
2022-12-19T11:32:48.661Z,21.63
2022-12-19T11:33:54.655Z,20.30
2022-12-19T11:35:03.012Z,20.60
2022-12-19T11:36:07.111Z,20.48
2022-12-19T11:37:19.180Z,20.48
2022-12-19T11:38:33.632Z,21.55
2022-12-19T11:39:45.520Z,21.42
2022-12-19T11:40:51.540Z,19.35
2022-12-19T11:42:01.706Z,21.48
2022-12-19T11:44:37.272Z,19.58
2022-12-19T11:45:52.603Z,22.85
2022-12-19T11:47:00.603Z,19.02
2022-12-19T11:48:10.487Z,18.83
2022-12-19T11:49:26.618Z,20.05
2022-12-19T11:50:33.113Z,20.67
2022-12-19T11:51:40.056Z,20.15
2022-12-19T11:53:07.766Z,18.52
2022-12-19T11:54:18.896Z,18.05
2022-12-19T11:55:27.015Z,22.10
2022-12-19T11:56:30.296Z,15.70
2022-12-19T11:57:32.257Z,18.73
2022-12-19T11:58:36.076Z,18.42
2022-12-19T11:59:41.169Z,16.58
2022-12-19T12:00:51.711Z,21.08
2022-12-19T12:02:10.231Z,15.73
2022-12-19T12:03:38.180Z,19.25
2022-12-19T12:05:10.709Z,18.45
2022-12-19T12:06:17.236Z,18.67
2022-12-19T12:07:27.582Z,19.00
2022-12-19T12:12:21.610Z,20.85
2022-12-19T12:14:02.040Z,22.52
2022-12-19T12:18:47.839Z,17.20
2022-12-19T12:20:40.163Z,17.48
2022-12-19T12:25:07.011Z,16.20
2022-12-19T12:28:57.232Z,16.70
2022-12-19T12:29:03.259Z,17.65
2022-12-19T12:31:23.085Z,17.38
2022-12-19T12:31:23.332Z,17.45
2022-12-19T12:31:29.544Z,16.35
2022-12-19T12:31:40.355Z,17.42
2022-12-19T12:31:41.757Z,17.08
2022-12-19T12:32:02.267Z,18.00
2022-12-19T12:32:06.517Z,18.40
2022-12-19T12:35:05.927Z,17.45
2022-12-19T12:35:46.560Z,16.50
2022-12-19T12:35:51.348Z,15.52
2022-12-19T12:38:59.810Z,16.77
2022-12-19T12:40:22.988Z,19.80
2022-12-19T12:41:58.643Z,18.90
2022-12-19T12:43:13.978Z,17.05
2022-12-19T12:44:17.205Z,17.30
2022-12-19T12:45:32.309Z,20.17
2022-12-19T12:46:40.864Z,16.10
2022-12-19T12:47:47.439Z,18.02
2022-12-19T12:48:55.445Z,16.77
2022-12-19T12:50:02.225Z,16.17
2022-12-19T12:51:06.934Z,18.25
2022-12-19T12:52:17.110Z,19.02
2022-12-19T12:53:25.643Z,16.88
2022-12-19T12:54:37.781Z,17.67
2022-12-19T12:55:43.041Z,17.20
2022-12-19T12:56:48.532Z,17.27
2022-12-19T12:57:51.990Z,16.27
2022-12-19T12:59:21.641Z,21.40
2022-12-19T13:00:27.665Z,16.40
2022-12-19T13:01:35.665Z,16.85
2022-12-19T13:02:39.052Z,16.52
2022-12-19T13:03:43.559Z,20.55
2022-12-19T13:05:00.626Z,17.20
2022-12-19T13:06:07.987Z,19.88
2022-12-19T13:07:29.752Z,17.40
2022-12-19T13:08:35.671Z,15.15
2022-12-19T13:09:38.534Z,17.45
2022-12-19T13:10:53.956Z,17.17
2022-12-19T13:12:20.928Z,20.35
2022-12-19T13:13:54.758Z,18.88
2022-12-19T13:15:20.253Z,16.58
2022-12-19T13:16:49.749Z,16.80
2022-12-19T13:18:09.373Z,17.33
2022-12-19T13:19:21.002Z,17.83
2022-12-19T13:20:48.629Z,16.50
2022-12-19T13:22:19.811Z,16.80
2022-12-19T13:24:26.693Z,18.45
2022-12-19T13:25:52.026Z,16.95
2022-12-19T13:26:54.670Z,16.70
2022-12-19T13:27:59.117Z,18.35
2022-12-19T13:29:27.103Z,19.10
2022-12-19T13:30:50.092Z,18.33
2022-12-19T13:32:13.453Z,17.70
2022-12-19T13:33:16.885Z,16.08
2022-12-19T13:34:20.258Z,16.42
2022-12-19T13:39:35.869Z,16.25
2022-12-19T13:40:01.314Z,16.98
2022-12-19T13:40:01.588Z,13.60
2022-12-19T13:40:32.683Z,17.33
2022-12-19T13:42:01.292Z,15.85
2022-12-19T13:43:33.166Z,14.15
2022-12-19T13:44:40.857Z,17.80
2022-12-19T13:45:50.757Z,20.27
2022-12-19T13:46:56.111Z,21.45
2022-12-19T13:48:02.125Z,17.83
2022-12-19T13:49:09.190Z,17.08
2022-12-19T13:50:24.688Z,23.02
2022-12-19T13:51:41.211Z,16.42
2022-12-19T13:52:49.407Z,17.50
2022-12-19T13:53:59.351Z,18.77
2022-12-19T13:55:02.742Z,13.25
2022-12-19T13:56:12.498Z,17.88
2022-12-19T13:57:22.462Z,18.30
2022-12-19T13:58:30.623Z,14.40
2022-12-19T13:59:38.871Z,19.02
2022-12-19T14:00:51.939Z,17.05
2022-12-19T14:01:57.160Z,20.73
2022-12-19T14:02:59.505Z,16.40
2022-12-19T14:04:07.991Z,17.67
2022-12-19T14:05:34.162Z,18.40
2022-12-19T14:06:47.173Z,18.73
2022-12-19T14:07:50.068Z,17.40
2022-12-19T14:09:37.323Z,19.38
2022-12-19T14:11:34.574Z,16.55
2022-12-19T14:13:42.558Z,17.58
2022-12-19T14:13:51.007Z,17.45
2022-12-19T14:15:14.087Z,15.48
2022-12-19T14:16:19.768Z,19.80
2022-12-19T14:17:23.734Z,19.75
2022-12-19T14:18:44.629Z,17.90
2022-12-19T14:19:51.451Z,15.88
2022-12-19T14:22:10.785Z,17.95
2022-12-19T14:22:38.225Z,18.27
2022-12-19T14:23:44.164Z,17.85
2022-12-19T14:24:55.089Z,16.75
2022-12-19T14:28:24.150Z,17.52
2022-12-19T14:28:26.982Z,17.30
2022-12-19T14:29:32.039Z,15.77
2022-12-19T14:30:50.380Z,17.58
2022-12-19T14:32:23.991Z,15.77
2022-12-19T14:33:46.019Z,17.08
2022-12-19T14:36:04.843Z,16.23
2022-12-19T14:36:15.968Z,18.42
2022-12-19T14:37:37.154Z,18.83
2022-12-19T14:39:22.476Z,16.90
2022-12-19T14:40:25.567Z,17.15
2022-12-19T14:42:00.974Z,16.92
2022-12-19T14:43:57.894Z,16.17
2022-12-19T14:52:08.675Z,17.65
2022-12-19T14:54:00.624Z,18.73
2022-12-19T14:54:03.654Z,16.08
2022-12-19T14:54:04.129Z,17.30
2022-12-19T14:54:21.095Z,19.10
2022-12-19T14:54:41.911Z,18.30
2022-12-19T14:56:12.351Z,18.83
2022-12-19T14:57:06.116Z,17.20
2022-12-19T14:58:56.294Z,18.60
2022-12-19T14:59:35.310Z,20.23
2022-12-19T15:01:09.001Z,18.67